createdAt,value
2017-03-02T00:00:15.306Z,3.02
2017-03-02T00:01:14.266Z,2.53
2017-03-02T00:02:12.868Z,2.73
2017-03-02T00:03:11.923Z,3.37
2017-03-02T00:04:10.508Z,2.15
2017-03-02T00:05:09.265Z,1.77
2017-03-02T00:06:07.893Z,2.33
2017-03-02T00:07:06.747Z,3.03
2017-03-02T00:08:05.346Z,2.80
2017-03-02T00:09:04.124Z,3.20
2017-03-02T00:10:02.743Z,2.17
2017-03-02T00:11:01.380Z,3.22
2017-03-02T00:12:00.044Z,2.15
2017-03-02T00:12:58.914Z,2.20
2017-03-02T00:13:57.897Z,2.93
2017-03-02T00:14:56.600Z,2.60
2017-03-02T00:15:55.199Z,3.50
2017-03-02T00:16:53.796Z,3.25
2017-03-02T00:17:52.399Z,1.57
2017-03-02T00:18:51.233Z,2.00
2017-03-02T00:19:49.868Z,1.52
2017-03-02T00:20:48.433Z,1.72
2017-03-02T00:21:47.038Z,4.02
2017-03-02T00:22:45.640Z,1.85
2017-03-02T00:23:44.254Z,1.62
2017-03-02T00:24:43.185Z,1.32
2017-03-02T00:25:41.799Z,2.50
2017-03-02T00:26:40.409Z,1.60
2017-03-02T00:27:39.017Z,1.97
2017-03-02T00:28:37.646Z,2.60
2017-03-02T00:29:36.252Z,2.28
2017-03-02T00:30:35.107Z,2.62
2017-03-02T00:31:34.188Z,2.57
2017-03-02T00:32:32.807Z,11.28
2017-03-02T00:33:31.370Z,1.88
2017-03-02T00:34:30.379Z,1.37
2017-03-02T00:35:29.341Z,2.02
2017-03-02T00:36:28.629Z,1.30
2017-03-02T00:37:27.230Z,1.27
2017-03-02T00:38:26.269Z,1.38
2017-03-02T00:39:24.866Z,2.05
2017-03-02T00:40:23.431Z,1.25
2017-03-02T00:41:22.033Z,1.07
2017-03-02T00:42:21.396Z,1.45
2017-03-02T00:43:19.969Z,1.40
2017-03-02T00:44:18.557Z,0.83
2017-03-02T00:45:17.212Z,1.00
2017-03-02T00:46:15.812Z,1.17
2017-03-02T00:47:14.859Z,1.30
2017-03-02T00:48:13.784Z,1.47
2017-03-02T00:49:12.774Z,1.33
2017-03-02T00:50:11.429Z,1.07
2017-03-02T00:51:10.045Z,1.37
2017-03-02T00:52:08.632Z,2.15
2017-03-02T00:53:07.239Z,1.43
2017-03-02T00:54:06.321Z,0.87
2017-03-02T00:55:05.037Z,1.05
2017-03-02T00:56:03.719Z,1.32
2017-03-02T00:57:02.404Z,1.13
2017-03-02T00:58:00.995Z,1.70
2017-03-02T00:58:59.589Z,0.68
2017-03-02T00:59:58.477Z,1.28
2017-03-02T01:00:57.106Z,1.27
2017-03-02T01:01:55.742Z,1.07
2017-03-02T01:02:54.320Z,1.52
2017-03-02T01:03:52.906Z,0.93
2017-03-02T01:04:51.908Z,0.80
2017-03-02T01:05:51.030Z,1.45
2017-03-02T01:06:49.576Z,1.42
2017-03-02T01:07:48.201Z,1.12
2017-03-02T01:08:46.761Z,1.15
2017-03-02T01:09:45.441Z,1.17
2017-03-02T01:10:44.035Z,1.05
2017-03-02T01:11:42.982Z,1.98
2017-03-02T01:12:41.573Z,3.67
2017-03-02T01:13:40.157Z,0.97
2017-03-02T01:14:39.141Z,1.27
2017-03-02T01:15:38.129Z,2.98
2017-03-02T01:16:36.749Z,2.08
2017-03-02T01:17:35.642Z,2.25
2017-03-02T01:18:34.222Z,2.53
2017-03-02T01:19:32.836Z,1.20
2017-03-02T01:20:31.435Z,0.98
2017-03-02T01:21:30.041Z,2.37
2017-03-02T01:22:28.687Z,2.78
2017-03-02T01:23:27.573Z,1.25
2017-03-02T01:24:26.193Z,2.00
2017-03-02T01:25:25.722Z,1.22
2017-03-02T01:26:24.324Z,1.28
2017-03-02T01:27:22.870Z,1.65
2017-03-02T01:28:21.494Z,3.18
2017-03-02T01:29:20.358Z,1.10
2017-03-02T01:30:18.961Z,1.48
2017-03-02T01:31:17.525Z,1.40
2017-03-02T01:32:16.085Z,1.93
2017-03-02T01:33:14.682Z,1.18
2017-03-02T01:34:13.745Z,1.03
2017-03-02T01:35:12.717Z,1.37
2017-03-02T01:36:11.301Z,2.00
2017-03-02T01:37:09.916Z,1.00
2017-03-02T01:38:08.896Z,1.17
2017-03-02T01:39:07.492Z,1.00
2017-03-02T01:40:06.110Z,1.65
2017-03-02T01:41:05.082Z,0.98
2017-03-02T01:42:03.715Z,2.30
2017-03-02T01:43:02.686Z,1.72
2017-03-02T01:44:01.311Z,1.22
2017-03-02T01:44:59.844Z,1.22
2017-03-02T01:45:58.468Z,1.33
2017-03-02T01:46:57.380Z,1.32
2017-03-02T01:47:55.994Z,1.85
2017-03-02T01:48:54.652Z,1.70
2017-03-02T01:49:53.607Z,1.37
2017-03-02T01:50:52.202Z,1.03
2017-03-02T01:51:50.836Z,1.22
2017-03-02T01:52:49.689Z,2.37
2017-03-02T01:53:48.213Z,2.12
2017-03-02T01:54:46.778Z,1.37
2017-03-02T01:55:45.316Z,1.00
2017-03-02T01:56:43.878Z,1.77
2017-03-02T01:57:42.416Z,1.62
2017-03-02T01:58:41.344Z,1.07
2017-03-02T01:59:39.887Z,1.92
2017-03-02T02:00:38.445Z,1.63
2017-03-02T02:01:37.357Z,1.72
2017-03-02T02:02:35.918Z,1.33
2017-03-02T02:03:34.463Z,1.27
2017-03-02T02:04:33.266Z,1.43
2017-03-02T02:05:31.836Z,1.12
2017-03-02T02:06:30.363Z,1.53
2017-03-02T02:07:28.864Z,2.42
2017-03-02T02:08:30.734Z,1.42
2017-03-02T02:09:29.283Z,1.77
2017-03-02T02:10:28.495Z,1.68
2017-03-02T02:11:27.069Z,1.48
2017-03-02T02:12:26.077Z,1.48
2017-03-02T02:13:24.626Z,1.60
2017-03-02T02:14:23.133Z,1.58
2017-03-02T02:15:21.669Z,1.53
2017-03-02T02:16:20.569Z,1.97
2017-03-02T02:17:19.125Z,2.48
2017-03-02T02:18:17.661Z,1.35
2017-03-02T02:19:16.275Z,1.23
2017-03-02T02:20:14.837Z,1.93
2017-03-02T02:21:13.350Z,1.62
2017-03-02T02:22:12.310Z,2.88
2017-03-02T02:23:10.841Z,2.87
2017-03-02T02:24:09.357Z,2.03
2017-03-02T02:25:07.864Z,2.12
2017-03-02T02:26:06.421Z,2.58
2017-03-02T02:27:04.973Z,3.47
2017-03-02T02:28:03.860Z,2.00
2017-03-02T02:29:02.508Z,1.43
2017-03-02T02:30:01.096Z,1.52
2017-03-02T02:30:59.669Z,2.18
2017-03-02T02:31:58.299Z,1.62
2017-03-02T02:32:56.813Z,4.68
2017-03-02T02:33:55.705Z,1.92
2017-03-02T02:34:54.208Z,2.08
2017-03-02T02:35:52.734Z,4.08
2017-03-02T02:36:51.310Z,1.47
2017-03-02T02:37:49.847Z,3.15
2017-03-02T02:38:48.407Z,2.73
2017-03-02T02:39:47.754Z,3.27
2017-03-02T02:40:46.254Z,2.48
2017-03-02T02:41:44.761Z,2.00
2017-03-02T02:42:43.299Z,2.02
2017-03-02T02:43:41.848Z,1.75
2017-03-02T02:44:40.380Z,4.97
2017-03-02T02:45:39.290Z,1.45
2017-03-02T02:46:37.853Z,3.53
2017-03-02T02:47:36.381Z,5.12
2017-03-02T02:48:35.388Z,1.30
2017-03-02T02:49:33.906Z,2.00
2017-03-02T02:50:32.509Z,2.95
2017-03-02T02:51:31.342Z,2.35
2017-03-02T02:52:29.880Z,2.68
2017-03-02T02:53:28.454Z,2.32
2017-03-02T02:54:26.983Z,4.13
2017-03-02T02:55:25.601Z,4.08
2017-03-02T02:56:24.198Z,3.60
2017-03-02T02:57:23.014Z,2.92
2017-03-02T02:58:22.761Z,1.90
2017-03-02T02:59:21.295Z,3.05
2017-03-02T03:00:19.851Z,4.43
2017-03-02T03:01:18.361Z,6.25
2017-03-02T03:02:16.883Z,2.52
2017-03-02T03:03:15.724Z,6.67
2017-03-02T03:04:14.269Z,4.65
2017-03-02T03:05:12.790Z,2.45
2017-03-02T03:06:11.321Z,3.00
2017-03-02T03:07:09.880Z,1.62
2017-03-02T03:08:08.459Z,2.00
2017-03-02T03:09:07.302Z,3.30
2017-03-02T03:10:05.902Z,1.75
2017-03-02T03:11:04.450Z,4.10
2017-03-02T03:12:02.997Z,6.38
2017-03-02T03:13:01.552Z,7.12
2017-03-02T03:14:00.080Z,2.95
2017-03-02T03:14:58.936Z,3.83
2017-03-02T03:15:57.476Z,3.92
2017-03-02T03:16:56.364Z,2.10
2017-03-02T03:17:54.926Z,4.28
2017-03-02T03:18:53.851Z,3.85
2017-03-02T03:19:52.336Z,4.23
2017-03-02T03:20:51.208Z,2.87
2017-03-02T03:21:49.723Z,3.05
2017-03-02T03:22:48.479Z,3.20
2017-03-02T03:23:47.287Z,4.45
2017-03-02T03:24:45.817Z,6.00
2017-03-02T03:25:44.358Z,6.82
2017-03-02T03:26:43.245Z,4.15
2017-03-02T03:27:41.739Z,4.37
2017-03-02T03:28:40.272Z,3.65
2017-03-02T03:29:38.869Z,3.70
2017-03-02T03:30:37.485Z,5.12
2017-03-02T03:31:36.008Z,8.20
2017-03-02T03:32:34.888Z,4.25
2017-03-02T03:33:33.413Z,5.47
2017-03-02T03:34:31.992Z,5.22
2017-03-02T03:35:30.492Z,7.75
2017-03-02T03:36:29.017Z,6.97
2017-03-02T03:37:27.562Z,4.88
2017-03-02T03:38:26.439Z,4.45
2017-03-02T03:39:24.989Z,3.83
2017-03-02T03:40:23.531Z,7.20
2017-03-02T03:41:22.104Z,5.25
2017-03-02T03:42:20.641Z,8.08
2017-03-02T03:43:19.178Z,10.80
2017-03-02T03:44:18.177Z,8.32
2017-03-02T03:45:16.705Z,6.23
2017-03-02T03:46:15.306Z,4.97
2017-03-02T03:47:13.878Z,8.05
2017-03-02T03:48:12.455Z,5.67
2017-03-02T03:49:11.110Z,4.55
2017-03-02T03:50:10.020Z,7.08
2017-03-02T03:51:08.564Z,8.07
2017-03-02T03:52:07.107Z,10.25
2017-03-02T03:53:05.619Z,4.25
2017-03-02T03:54:04.129Z,5.97
2017-03-02T03:55:02.705Z,5.63
2017-03-02T03:56:01.662Z,6.85
2017-03-02T03:57:00.183Z,4.58
2017-03-02T03:57:58.716Z,7.27
2017-03-02T03:58:57.239Z,6.53
2017-03-02T03:59:56.145Z,8.97
2017-03-02T04:00:54.694Z,8.83
2017-03-02T04:01:54.032Z,5.53
2017-03-02T04:02:52.609Z,4.42
2017-03-02T04:03:51.148Z,12.38
2017-03-02T04:04:49.685Z,10.07
2017-03-02T04:05:48.221Z,13.03
2017-03-02T04:06:46.736Z,8.18
2017-03-02T04:07:45.660Z,6.58
2017-03-02T04:08:44.232Z,8.60
2017-03-02T04:09:42.732Z,6.65
2017-03-02T04:10:41.231Z,9.50
2017-03-02T04:11:39.770Z,5.27
2017-03-02T04:12:38.375Z,9.17
2017-03-02T04:13:37.313Z,6.50
2017-03-02T04:14:35.835Z,5.90
2017-03-02T04:15:34.404Z,8.85
2017-03-02T04:16:33.347Z,8.30
2017-03-02T04:17:31.934Z,7.32
2017-03-02T04:18:30.457Z,7.02
2017-03-02T04:19:29.369Z,8.93
2017-03-02T04:20:27.898Z,6.47
2017-03-02T04:21:26.423Z,6.10
2017-03-02T04:22:25.033Z,4.85
2017-03-02T04:23:23.970Z,10.00
2017-03-02T04:24:22.563Z,10.53
2017-03-02T04:25:21.427Z,7.00
2017-03-02T04:26:19.945Z,10.65
2017-03-02T04:27:18.545Z,6.63
2017-03-02T04:28:17.055Z,10.57
2017-03-02T04:29:15.561Z,8.78
2017-03-02T04:30:14.495Z,12.43
2017-03-02T04:31:13.376Z,7.32
2017-03-02T04:32:11.920Z,7.02
2017-03-02T04:33:10.468Z,11.60
2017-03-02T04:34:09.015Z,6.90
2017-03-02T04:35:07.524Z,8.18
2017-03-02T04:36:06.128Z,9.18
2017-03-02T04:37:05.018Z,12.28
2017-03-02T04:38:03.579Z,6.00
2017-03-02T04:39:02.139Z,9.12
2017-03-02T04:40:00.768Z,8.12
2017-03-02T04:40:59.283Z,7.82
2017-03-02T04:41:57.869Z,6.10
2017-03-02T04:42:56.647Z,6.37
2017-03-02T04:43:55.246Z,7.65
2017-03-02T04:44:53.783Z,7.13
2017-03-02T04:45:52.321Z,5.48
2017-03-02T04:46:51.242Z,6.80
2017-03-02T04:47:49.769Z,4.77
2017-03-02T04:48:49.015Z,4.98
2017-03-02T04:49:47.521Z,9.90
2017-03-02T04:50:46.038Z,6.13
2017-03-02T04:51:44.597Z,8.18
2017-03-02T04:52:43.141Z,8.95
2017-03-02T04:53:41.669Z,8.90
2017-03-02T04:54:40.445Z,4.62
2017-03-02T04:55:39.398Z,5.63
2017-03-02T04:56:37.925Z,7.27
2017-03-02T04:57:36.448Z,5.45
2017-03-02T04:58:34.961Z,10.22
2017-03-02T04:59:40.288Z,6.65
2017-03-02T05:00:38.796Z,5.60
2017-03-02T05:01:37.303Z,7.10
2017-03-02T05:02:35.875Z,4.53
2017-03-02T05:03:34.458Z,4.75
2017-03-02T05:04:32.968Z,9.80
2017-03-02T05:05:31.816Z,6.88
2017-03-02T05:06:30.365Z,7.52
2017-03-02T05:07:28.870Z,10.22
2017-03-02T05:08:27.384Z,4.15
2017-03-02T05:09:25.853Z,7.77
2017-03-02T05:10:24.388Z,7.05
2017-03-02T05:11:23.271Z,6.68
2017-03-02T05:12:21.760Z,8.05
2017-03-02T05:13:20.291Z,6.88
2017-03-02T05:14:18.780Z,5.37
2017-03-02T05:15:17.310Z,8.68
2017-03-02T05:16:15.831Z,6.60
2017-03-02T05:17:14.692Z,6.93
2017-03-02T05:18:13.241Z,6.20
2017-03-02T05:19:11.736Z,7.22
2017-03-02T05:20:10.255Z,9.93
2017-03-02T05:21:09.225Z,6.23
2017-03-02T05:22:07.742Z,10.77
2017-03-02T05:23:06.547Z,9.62
2017-03-02T05:24:05.069Z,8.08
2017-03-02T05:25:03.611Z,7.63
2017-03-02T05:26:02.142Z,5.97
2017-03-02T05:27:00.654Z,10.25
2017-03-02T05:27:59.189Z,9.37
2017-03-02T05:28:57.962Z,7.82
2017-03-02T05:29:56.871Z,8.20
2017-03-02T05:30:55.414Z,7.12
2017-03-02T05:31:53.926Z,7.57
2017-03-02T05:32:52.450Z,9.87
2017-03-02T05:33:50.992Z,5.67
2017-03-02T05:34:50.236Z,8.78
2017-03-02T05:35:48.807Z,6.63
2017-03-02T05:36:47.342Z,8.38
2017-03-02T05:37:45.912Z,7.07
2017-03-02T05:38:45.220Z,8.62
2017-03-02T05:39:43.732Z,9.40
2017-03-02T05:40:42.531Z,8.73
2017-03-02T05:41:41.092Z,11.48
2017-03-02T05:42:39.604Z,11.82
2017-03-02T05:43:38.525Z,9.58
2017-03-02T05:44:37.371Z,10.70
2017-03-02T05:45:35.915Z,5.38
2017-03-02T05:46:35.570Z,9.42
2017-03-02T05:47:34.092Z,12.85
2017-03-02T05:48:32.637Z,9.12
2017-03-02T05:49:31.161Z,5.40
2017-03-02T05:50:29.808Z,14.47
2017-03-02T05:51:28.825Z,6.08
2017-03-02T05:52:27.723Z,7.05
2017-03-02T05:53:26.223Z,10.67
2017-03-02T05:54:24.747Z,4.90
2017-03-02T05:55:23.316Z,11.60
2017-03-02T05:56:22.163Z,6.27
2017-03-02T05:57:20.733Z,10.85
2017-03-02T05:58:19.577Z,10.95
2017-03-02T05:59:19.240Z,10.02
2017-03-02T06:00:17.771Z,6.42
2017-03-02T06:01:16.273Z,7.80
2017-03-02T06:02:19.005Z,9.35
2017-03-02T06:03:17.545Z,3.93
2017-03-02T06:04:16.442Z,5.52
2017-03-02T06:05:15.343Z,13.70
2017-03-02T06:06:13.869Z,8.77
2017-03-02T06:07:12.389Z,5.48
2017-03-02T06:08:10.883Z,6.03
2017-03-02T06:09:09.820Z,8.57
2017-03-02T06:10:08.702Z,6.52
2017-03-02T06:11:07.275Z,10.20
2017-03-02T06:12:05.820Z,5.85
2017-03-02T06:13:04.362Z,10.75
2017-03-02T06:14:03.289Z,8.52
2017-03-02T06:15:01.792Z,6.23
2017-03-02T06:16:00.652Z,8.77
2017-03-02T06:16:59.243Z,7.10
2017-03-02T06:17:57.742Z,5.77
2017-03-02T06:18:56.639Z,8.08
2017-03-02T06:19:55.152Z,4.75
2017-03-02T06:20:53.700Z,7.73
2017-03-02T06:21:52.551Z,5.48
2017-03-02T06:22:51.048Z,4.87
2017-03-02T06:23:49.561Z,9.52
2017-03-02T06:24:48.096Z,10.73
2017-03-02T06:25:46.613Z,7.28
2017-03-02T06:26:45.201Z,10.20
2017-03-02T06:27:44.037Z,9.80
2017-03-02T06:28:42.553Z,6.92
2017-03-02T06:29:41.060Z,9.77
2017-03-02T06:30:39.611Z,9.87
2017-03-02T06:31:38.136Z,8.68
2017-03-02T06:32:36.686Z,7.53
2017-03-02T06:33:35.586Z,11.12
2017-03-02T06:34:34.090Z,10.93
2017-03-02T06:35:32.634Z,5.72
2017-03-02T06:36:31.187Z,8.67
2017-03-02T06:37:29.715Z,4.88
2017-03-02T06:38:28.267Z,4.90
2017-03-02T06:39:27.113Z,3.28
2017-03-02T06:40:25.664Z,4.83
2017-03-02T06:41:24.173Z,10.63
2017-03-02T06:42:22.686Z,8.62
2017-03-02T06:43:21.624Z,10.18
2017-03-02T06:44:20.135Z,8.95
2017-03-02T06:45:18.912Z,12.92
2017-03-02T06:46:17.428Z,13.27
2017-03-02T06:47:15.963Z,11.58
2017-03-02T06:48:14.905Z,6.23
2017-03-02T06:49:13.533Z,9.80
2017-03-02T06:50:12.123Z,8.18
2017-03-02T06:51:10.932Z,9.62
2017-03-02T06:52:09.452Z,7.22
2017-03-02T06:53:07.990Z,11.35
2017-03-02T06:54:06.562Z,4.77
2017-03-02T06:55:05.492Z,10.73
2017-03-02T06:56:04.068Z,6.02
2017-03-02T06:57:02.881Z,8.87
2017-03-02T06:58:01.417Z,11.27
2017-03-02T06:58:59.961Z,9.15
2017-03-02T06:59:58.530Z,10.35
2017-03-02T07:00:57.036Z,9.10
2017-03-02T07:01:55.533Z,12.43
2017-03-02T07:02:54.405Z,7.77
2017-03-02T07:03:52.979Z,8.27
2017-03-02T07:04:51.500Z,6.88
2017-03-02T07:05:50.436Z,12.70
2017-03-02T07:06:48.955Z,9.30
2017-03-02T07:07:47.502Z,9.78
2017-03-02T07:08:46.389Z,10.97
2017-03-02T07:09:44.891Z,11.33
2017-03-02T07:10:43.806Z,12.30
2017-03-02T07:11:42.317Z,6.67
2017-03-02T07:12:40.814Z,10.22
2017-03-02T07:13:39.345Z,13.57
2017-03-02T07:14:38.122Z,15.45
2017-03-02T07:15:36.616Z,12.60
2017-03-02T07:16:35.170Z,9.43
2017-03-02T07:17:33.751Z,9.25
2017-03-02T07:18:32.287Z,12.25
2017-03-02T07:19:31.906Z,9.15
2017-03-02T07:20:30.812Z,13.73
2017-03-02T07:21:30.697Z,14.63
2017-03-02T07:22:30.561Z,11.95
2017-03-02T07:23:30.765Z,11.97
2017-03-02T07:24:29.280Z,9.95
2017-03-02T07:25:27.950Z,12.28
2017-03-02T07:26:29.859Z,7.68
2017-03-02T07:27:28.802Z,13.57
2017-03-02T07:28:27.385Z,11.83
2017-03-02T07:29:25.970Z,11.20
2017-03-02T07:30:24.665Z,15.57
2017-03-02T07:31:23.486Z,13.05
2017-03-02T07:32:22.364Z,11.68
2017-03-02T07:33:23.101Z,13.27
2017-03-02T07:34:21.644Z,8.53
2017-03-02T07:35:20.198Z,12.08
2017-03-02T07:36:18.910Z,15.68
2017-03-02T07:37:17.424Z,12.43
2017-03-02T07:38:16.259Z,17.47
2017-03-02T07:39:14.836Z,16.12
2017-03-02T07:40:13.453Z,10.47
2017-03-02T07:41:15.769Z,6.55
2017-03-02T07:42:14.359Z,7.95
2017-03-02T07:43:12.891Z,10.15
2017-03-02T07:44:11.894Z,15.65
2017-03-02T07:45:10.400Z,13.98
2017-03-02T07:46:09.389Z,12.30
2017-03-02T07:47:07.935Z,14.55
2017-03-02T07:48:06.452Z,11.10
2017-03-02T07:49:04.969Z,12.02
2017-03-02T07:50:03.782Z,13.30
2017-03-02T07:51:02.326Z,9.27
2017-03-02T07:52:00.860Z,15.17
2017-03-02T07:52:59.473Z,20.90
2017-03-02T07:53:57.989Z,7.70
2017-03-02T07:54:56.537Z,11.68
2017-03-02T07:55:55.886Z,5.78
2017-03-02T07:56:54.819Z,14.50
2017-03-02T07:57:53.369Z,10.02
2017-03-02T07:58:51.904Z,10.00
2017-03-02T07:59:50.540Z,12.82
2017-03-02T08:00:49.120Z,17.83
2017-03-02T08:01:47.945Z,10.07
2017-03-02T08:02:46.528Z,14.03
2017-03-02T08:03:45.155Z,13.35
2017-03-02T08:04:43.676Z,10.70
2017-03-02T08:05:42.234Z,12.98
2017-03-02T08:06:40.756Z,14.97
2017-03-02T08:07:40.079Z,13.23
2017-03-02T08:08:39.425Z,14.82
2017-03-02T08:09:38.039Z,11.55
2017-03-02T08:10:38.176Z,12.05
2017-03-02T08:11:36.716Z,9.93
2017-03-02T08:12:35.248Z,19.20
2017-03-02T08:13:37.649Z,13.43
2017-03-02T08:14:36.632Z,16.22
2017-03-02T08:15:37.947Z,12.92
2017-03-02T08:16:36.457Z,11.80
2017-03-02T08:17:35.013Z,10.75
2017-03-02T08:18:33.916Z,10.52
2017-03-02T08:19:34.535Z,9.85
2017-03-02T08:20:34.615Z,15.40
2017-03-02T08:21:38.267Z,9.15
2017-03-02T08:22:37.021Z,13.32
2017-03-02T08:23:35.569Z,10.37
2017-03-02T08:24:34.383Z,8.65
2017-03-02T08:25:32.933Z,7.70
2017-03-02T08:26:31.460Z,8.42
2017-03-02T08:27:30.020Z,10.55
2017-03-02T08:28:28.556Z,12.13
2017-03-02T08:29:27.088Z,17.75
2017-03-02T08:30:26.297Z,10.25
2017-03-02T08:31:24.850Z,12.55
2017-03-02T08:32:23.778Z,9.95
2017-03-02T08:33:22.261Z,8.92
2017-03-02T08:34:21.578Z,10.67
2017-03-02T08:35:20.101Z,9.45
2017-03-02T08:36:19.013Z,7.63
2017-03-02T08:37:17.535Z,11.47
2017-03-02T08:38:16.053Z,20.63
2017-03-02T08:39:14.609Z,9.33
2017-03-02T08:40:13.220Z,14.28
2017-03-02T08:41:11.767Z,8.15
2017-03-02T08:42:10.642Z,9.15
2017-03-02T08:43:13.605Z,8.73
2017-03-02T08:44:12.823Z,13.70
2017-03-02T08:45:11.466Z,11.55
2017-03-02T08:46:10.020Z,16.02
2017-03-02T08:47:08.531Z,8.60
2017-03-02T08:48:07.416Z,14.95
2017-03-02T08:49:05.900Z,9.77
2017-03-02T08:50:04.491Z,14.40
2017-03-02T08:51:04.595Z,12.70
2017-03-02T08:52:03.163Z,16.72
2017-03-02T08:53:01.937Z,12.93
2017-03-02T08:54:00.780Z,12.78
2017-03-02T08:54:59.472Z,10.37
2017-03-02T08:55:58.005Z,7.67
2017-03-02T08:56:56.650Z,14.68
2017-03-02T08:57:55.209Z,12.73
2017-03-02T08:58:53.719Z,9.32
2017-03-02T08:59:52.673Z,11.68
2017-03-02T09:00:51.275Z,16.82
2017-03-02T09:01:49.816Z,7.03
2017-03-02T09:02:48.379Z,12.62
2017-03-02T09:03:46.908Z,12.93
2017-03-02T09:04:45.421Z,14.08
2017-03-02T09:05:44.287Z,14.90
2017-03-02T09:06:42.858Z,12.53
2017-03-02T09:07:42.274Z,10.58
2017-03-02T09:08:40.786Z,9.87
2017-03-02T09:09:39.315Z,14.18
2017-03-02T09:10:38.032Z,15.05
2017-03-02T09:11:36.921Z,12.97
2017-03-02T09:12:35.476Z,16.33
2017-03-02T09:13:34.073Z,9.90
2017-03-02T09:14:32.682Z,17.68
2017-03-02T09:15:31.331Z,9.57
2017-03-02T09:16:30.181Z,12.25
2017-03-02T09:17:28.996Z,9.75
2017-03-02T09:18:27.503Z,11.27
2017-03-02T09:19:26.015Z,14.95
2017-03-02T09:20:24.542Z,10.43
2017-03-02T09:21:23.099Z,12.08
2017-03-02T09:22:21.657Z,12.90
2017-03-02T09:23:21.428Z,10.72
2017-03-02T09:24:19.952Z,11.73
2017-03-02T09:25:18.490Z,13.97
2017-03-02T09:26:17.119Z,15.13
2017-03-02T09:27:16.088Z,9.90
2017-03-02T09:28:14.957Z,20.52
2017-03-02T09:29:13.803Z,11.95
2017-03-02T09:30:12.329Z,8.57
2017-03-02T09:31:10.945Z,7.20
2017-03-02T09:32:09.490Z,6.07
2017-03-02T09:33:08.725Z,9.93
2017-03-02T09:34:08.098Z,7.80
2017-03-02T09:35:10.297Z,15.13
2017-03-02T09:36:08.830Z,8.67
2017-03-02T09:37:07.377Z,12.18
2017-03-02T09:38:06.474Z,8.98
2017-03-02T09:39:05.532Z,8.50
2017-03-02T09:40:04.067Z,10.20
2017-03-02T09:41:03.041Z,12.98
2017-03-02T09:42:01.553Z,15.63
2017-03-02T09:43:00.591Z,8.00
2017-03-02T09:43:59.123Z,9.10
2017-03-02T09:44:57.739Z,11.20
2017-03-02T09:45:56.278Z,14.13
2017-03-02T09:46:55.536Z,9.87
2017-03-02T09:47:54.059Z,10.28
2017-03-02T09:48:55.632Z,15.38
2017-03-02T09:49:54.167Z,8.67
2017-03-02T09:50:52.714Z,7.90
2017-03-02T09:51:51.225Z,6.00
2017-03-02T09:52:50.022Z,9.80
2017-03-02T09:53:48.593Z,10.27
2017-03-02T09:54:47.081Z,7.05
2017-03-02T09:55:45.599Z,9.48
2017-03-02T09:56:44.124Z,5.63
2017-03-02T09:57:43.699Z,7.83
2017-03-02T09:58:42.933Z,6.92
2017-03-02T09:59:41.564Z,7.32
2017-03-02T10:00:41.483Z,10.40
2017-03-02T10:01:40.025Z,7.87
2017-03-02T10:02:38.879Z,6.82
2017-03-02T10:03:37.406Z,6.97
2017-03-02T10:04:36.273Z,9.18
2017-03-02T10:05:34.860Z,8.73
2017-03-02T10:06:33.807Z,11.22
2017-03-02T10:07:32.320Z,9.80
2017-03-02T10:08:31.374Z,9.70
2017-03-02T10:09:29.935Z,4.25
2017-03-02T10:10:29.701Z,8.50
2017-03-02T10:11:28.216Z,8.75
2017-03-02T10:12:26.771Z,11.67
2017-03-02T10:13:25.291Z,11.30
2017-03-02T10:14:24.224Z,5.68
2017-03-02T10:15:22.782Z,8.18
2017-03-02T10:16:21.702Z,12.82
2017-03-02T10:17:22.292Z,13.57
2017-03-02T10:18:20.923Z,11.82
2017-03-02T10:19:19.434Z,9.13
2017-03-02T10:20:17.970Z,6.73
2017-03-02T10:21:16.501Z,10.62
2017-03-02T10:22:15.494Z,9.15
2017-03-02T10:23:14.062Z,9.83
2017-03-02T10:24:12.571Z,11.20
2017-03-02T10:25:11.138Z,12.52
2017-03-02T10:26:10.734Z,4.53
2017-03-02T10:27:09.265Z,9.08
2017-03-02T10:28:08.166Z,6.18
2017-03-02T10:29:06.832Z,6.72
2017-03-02T10:30:06.142Z,8.72
2017-03-02T10:31:04.733Z,6.70
2017-03-02T10:32:03.275Z,7.93
2017-03-02T10:33:01.791Z,5.73
2017-03-02T10:34:00.698Z,7.83
2017-03-02T10:34:59.288Z,10.25
2017-03-02T10:35:57.819Z,7.08
2017-03-02T10:36:56.391Z,11.43
2017-03-02T10:37:54.904Z,9.73
2017-03-02T10:38:53.599Z,7.60
2017-03-02T10:39:52.494Z,10.75
2017-03-02T10:40:51.019Z,9.93
2017-03-02T10:41:49.567Z,11.25
2017-03-02T10:42:48.081Z,6.05
2017-03-02T10:43:46.603Z,5.87
2017-03-02T10:44:45.167Z,8.07
2017-03-02T10:45:43.990Z,5.92
2017-03-02T10:46:42.513Z,8.08
2017-03-02T10:47:42.270Z,9.88
2017-03-02T10:48:40.782Z,5.68
2017-03-02T10:49:39.356Z,7.25
2017-03-02T10:50:37.857Z,6.85
2017-03-02T10:51:36.788Z,8.82
2017-03-02T10:52:35.323Z,6.97
2017-03-02T10:53:34.208Z,7.53
2017-03-02T10:54:32.739Z,6.22
2017-03-02T10:55:31.250Z,8.13
2017-03-02T10:56:29.750Z,6.80
2017-03-02T10:57:30.904Z,6.15
2017-03-02T10:58:29.739Z,8.80
2017-03-02T10:59:28.239Z,4.65
2017-03-02T11:00:26.843Z,7.27
2017-03-02T11:01:25.470Z,8.52
2017-03-02T11:02:24.019Z,4.85
2017-03-02T11:03:22.838Z,5.72
2017-03-02T11:04:21.366Z,7.00
2017-03-02T11:05:20.254Z,15.02
2017-03-02T11:06:19.177Z,7.60
2017-03-02T11:07:17.675Z,7.00
2017-03-02T11:08:16.217Z,12.25
2017-03-02T11:09:15.200Z,9.80
2017-03-02T11:10:15.356Z,8.98
2017-03-02T11:11:13.859Z,11.02
2017-03-02T11:12:12.369Z,6.30
2017-03-02T11:13:10.888Z,7.32
2017-03-02T11:14:09.476Z,6.70
2017-03-02T11:15:08.759Z,8.05
2017-03-02T11:16:07.319Z,8.00
2017-03-02T11:17:06.594Z,10.95
2017-03-02T11:18:05.381Z,6.00
2017-03-02T11:19:03.890Z,5.33
2017-03-02T11:20:02.394Z,8.47
2017-03-02T11:21:01.259Z,5.23
2017-03-02T11:21:59.771Z,8.22
2017-03-02T11:22:58.749Z,7.50
2017-03-02T11:23:57.711Z,5.48
2017-03-02T11:24:56.260Z,7.00
2017-03-02T11:25:54.811Z,6.83
2017-03-02T11:26:53.599Z,7.17
2017-03-02T11:27:52.126Z,8.70
2017-03-02T11:28:50.678Z,13.78
2017-03-02T11:29:49.226Z,10.57
2017-03-02T11:30:47.740Z,9.33
2017-03-02T11:31:46.247Z,7.07
2017-03-02T11:32:45.054Z,6.97
2017-03-02T11:33:43.577Z,9.12
2017-03-02T11:34:42.139Z,8.77
2017-03-02T11:35:40.631Z,12.17
2017-03-02T11:36:39.171Z,9.18
2017-03-02T11:37:40.413Z,8.45
2017-03-02T11:38:39.654Z,9.17
2017-03-02T11:39:38.723Z,8.90
2017-03-02T11:40:37.587Z,6.35
2017-03-02T11:41:36.187Z,5.52
2017-03-02T11:42:34.886Z,7.88
2017-03-02T11:43:33.703Z,4.93
2017-03-02T11:44:33.754Z,8.70
2017-03-02T11:45:32.324Z,4.32
2017-03-02T11:46:30.877Z,9.12
2017-03-02T11:47:29.419Z,12.05
2017-03-02T11:48:28.499Z,9.68
2017-03-02T11:49:27.583Z,9.10
2017-03-02T11:50:26.422Z,12.95
2017-03-02T11:51:24.995Z,9.67
2017-03-02T11:52:23.861Z,6.68
2017-03-02T11:53:22.407Z,8.10
2017-03-02T11:54:24.463Z,9.27
2017-03-02T11:55:23.015Z,5.72
2017-03-02T11:56:21.794Z,10.37
2017-03-02T11:57:20.302Z,7.42
2017-03-02T11:58:20.842Z,12.63
2017-03-02T11:59:19.542Z,4.68
2017-03-02T12:00:18.060Z,12.65
2017-03-02T12:01:16.635Z,8.83
2017-03-02T12:02:15.859Z,8.43
2017-03-02T12:03:15.518Z,8.82
2017-03-02T12:04:14.439Z,8.02
2017-03-02T12:05:13.091Z,5.00
2017-03-02T12:06:11.672Z,4.68
2017-03-02T12:07:10.212Z,6.38
2017-03-02T12:08:09.033Z,6.72
2017-03-02T12:09:07.930Z,6.03
2017-03-02T12:10:06.460Z,12.28
2017-03-02T12:11:04.966Z,5.98
2017-03-02T12:12:03.510Z,10.97
2017-03-02T12:13:02.033Z,7.85
2017-03-02T12:14:00.898Z,6.42
2017-03-02T12:14:59.441Z,7.08
2017-03-02T12:15:57.991Z,8.43
2017-03-02T12:16:56.528Z,6.43
2017-03-02T12:17:55.075Z,4.40
2017-03-02T12:18:53.630Z,6.32
2017-03-02T12:19:52.532Z,7.82
2017-03-02T12:20:51.087Z,7.27
2017-03-02T12:21:49.608Z,5.87
2017-03-02T12:22:48.570Z,7.92
2017-03-02T12:23:47.087Z,6.78
2017-03-02T12:24:46.024Z,7.08
2017-03-02T12:25:44.844Z,5.75
2017-03-02T12:26:43.785Z,6.67
2017-03-02T12:27:42.324Z,8.35
2017-03-02T12:28:40.867Z,5.95
2017-03-02T12:29:39.423Z,5.20
2017-03-02T12:30:37.935Z,10.90
2017-03-02T12:31:36.838Z,5.92
2017-03-02T12:32:35.331Z,7.07
2017-03-02T12:33:33.862Z,9.03
2017-03-02T12:34:32.462Z,7.77
2017-03-02T12:35:30.968Z,6.00
2017-03-02T12:36:29.948Z,8.68
2017-03-02T12:37:28.771Z,10.45
2017-03-02T12:38:27.365Z,5.30
2017-03-02T12:39:25.997Z,5.78
2017-03-02T12:40:24.527Z,8.48
2017-03-02T12:41:23.070Z,4.48
2017-03-02T12:42:21.597Z,8.20
2017-03-02T12:43:20.538Z,10.33
2017-03-02T12:44:19.051Z,6.43
2017-03-02T12:45:17.976Z,4.93
2017-03-02T12:46:16.523Z,10.43
2017-03-02T12:47:15.067Z,4.70
2017-03-02T12:48:13.619Z,8.92
2017-03-02T12:49:12.476Z,6.02
2017-03-02T12:50:11.130Z,5.65
2017-03-02T12:51:09.691Z,7.88
2017-03-02T12:52:08.656Z,9.22
2017-03-02T12:53:07.648Z,9.23
2017-03-02T12:54:06.175Z,9.30
2017-03-02T12:55:04.956Z,5.03